Terminal Aerodrome Forecast
Issued by NWS Duluth, MN

Home | Current Version | Previous Version | Text Only | Print | Product List | Glossary On
Versions: 1 2 3 4 5 6 7 8 9 10 11 12 13 14 15 16 17 18 19 20 21 22 23
000
FTUS43 KDLH 251700
TAFDLH
TAF
KDLH 251720Z 2518/2618 27003KT P6SM FEW020
     FM251900 22005KT P6SM SCT025 BKN040
     FM260200 VRB03KT P6SM OVC090
     FM260600 00000KT P6SM -SN SCT014 OVC035
     FM261300 02005KT 6SM -SN BKN018 OVC027
      TEMPO 2616/2618 2SM -SN BR OVC015=

USA.gov is the U.S. government's official web portal to all federal, state and local government web resources and services.